Ride Results

Raglan (08-06-2008)
Ride distance: 80.0 km

Outcomes - Raglan (08-06-2008)
Division No. of Entries Retired / DNE Completed Withdrawn Ineligible V/O Percentage Completed
HW 13 - 12 - - 1 92.31%
MW 18 - 13 2 - 3 72.22%
LW 11 - 10 - - 1 90.91%
JN 4 - 4 - - - 100.00%
Totals 46 - 39 2 - 5 84.78%
Results - Raglan (08-06-2008)
No. Rider Horse Place Time Leg Speeds Total
Km/Hr
H/R bpm
Heavyweight
82 Jarrod Robinson Julian 1 (BC) 4:06:00 21.2, 18.0 19.51 37, 40, 41 (Avg:40)
857 Tim Brudenell Meadow View Eternal Flame 2 4:07:00 21.2, 17.9 19.43 36, 48, 43 (Avg:45)
9 Sandy Horton Aloha Glacier Bay 3 5:08:00 16.6, 14.6 15.58 27, 48, 52 (Avg:50)
65 Carl Adamson Bowzatus 4 5:19:00 15.5, 14.5 15.05 36, 44, 44 (Avg:44)
111 Greg May Silver Request 5 5:40:00 15.5, 12.9 14.12 32, 52, 52 (Avg:52)
101 Michael Gauci Daarsoto 6 5:54:00 15.2, 12.1 13.56 38, 50, 55 (Avg:52)
58 Dianne Tobin Granjen Ruben James 7 5:54:01 15.2, 12.1 13.56 34, 50, 45 (Avg:47)
26 Katrina Westerhoff Avondale Marconi 8 7:15:00 12.1, 10.1 11.03 32, 41, 54 (Avg:47)
864 Laurie Stevens Salz Bossy Boots 9 7:39:00 11.9, 9.3 10.46 34, 44, 46 (Avg:45)
1 Tony Boag Currowan Winston 10 7:44:00 11.3, 9.4 10.34 38, 49, 55 (Avg:52)
7 Robert Punicki Schem 10 7:44:00 11.3, 9.4 10.34 34, 45, 53 (Avg:49)
198 Tony Thorneycroft Shuja Nadji Riffan 10 7:44:00 11.3, 9.4 10.34 30, 40, 52 (Avg:46)
870 Tina Camm Damazaylia Lame L2 0:00:00 20.1, 16.6 - 30, 42, 42 (Avg:42)
Middleweight
42 Hans Peuker Marybank Celia 1 (BC) 4:09:00 20.5, 18.1 19.28 29, 44, 46 (Avg:45)
78 Jennifer Pitman Meg 2 6:00:00 15.7, 11.5 13.33 36, 46, 48 (Avg:47)
53 Beverley Rayner-Mason Karumba Nariel 2 6:00:00 16.5, 11.1 13.33 38, 47, 58 (Avg:52)
69 Sue Cavill Koonwarra Kavalier 4 6:19:00 13.3, 12.0 12.66 28, 40, 44 (Avg:42)
27 Karina Heikkila Freya 5 6:20:00 13.1, 12.1 12.63 30, 43, 53 (Avg:48)
126 Wendy Riha Eastern Park The Duke 6 6:24:00 12.3, 12.6 12.50 36, 40, 44 (Avg:42)
142 Jan Scholes Clovelly Park Jonothan 7 6:28:00 12.7, 11.9 12.37 32, 48, 48 (Avg:48)
44 Vanessa Smith Cieanna 8 6:51:00 12.0, 11.3 11.68 32, 44, 43 (Avg:43)
895 Lisa Worden Clarendon Raziah 9 7:00:00 12.1, 10.7 11.43 34, 40, 52 (Avg:46)
210 Fiona Hodges Elphyn Ranique 10 7:15:00 12.1, 10.0 11.03 28, 42, 41 (Avg:41)
181 Sharee Court Just Kira 11 7:20:00 11.1, 10.6 10.91 32, 41, 49 (Avg:45)
89 Sheryl Herbert Krishlah Maleeka 11 7:20:00 11.1, 10.6 10.91 39, 46, 48 (Avg:47)
166 Christine Schepisi Musical Gully Carousel 13 7:44:00 10.8, 9.8 10.34 44, 44, 51 (Avg:47)
859 Sue Baillie Bobby Heart Rate L2 0:00:00 13.2, 12.1 - 36, 54, 66 (Avg:60)
865 Patricia Mesiti Lanamere D'Brue Heart Rate L2 0:00:00 13.3, 11.5 - 32, 44, 70 (Avg:57)
888 Rohan Stanes Turingal Park Dartagnion Lame L2 0:00:00 19.6, 15.4 - 37, 47, 60 (Avg:53)
95 Pauline Wallace Menora Beagle Boy Withdrawn L2 0:00:00 - - 48, 55, 51 (Avg:53)
33 Vanessa Perry Conderosa Sovuryn Withdrawn L1 0:00:00 - - 50, 41 (Avg:41)
Lightweight
14 Shandal Bengtsson Kedarona Kliche 1 (BC) 4:23:00 19.5, 17.1 18.25 36, 47, 43 (Avg:45)
49 Jessica Remfry Ennerdale Meccano 2 5:40:00 15.5, 12.9 14.12 30, 38, 40 (Avg:39)
103 Jess Welsh Arget Mr Stitch 3 6:05:00 13.1, 13.1 13.15 51, 44, 44 (Avg:44)
208 Janeen Smith Taylorsglen Osca 4 6:18:00 13.1, 12.2 12.70 32, 41, 47 (Avg:44)
183 Nicky Robinson Sterling Nakeeta 5 6:25:00 12.3, 12.6 12.47 38, 44, 52 (Avg:48)
886 Jessica Kirsch Rio Sansha 6 6:51:00 12.1, 11.2 11.68 40, 44, 50 (Avg:47)
885 Sally Stevens Kirrong Khalaasy 7 7:39:00 11.9, 9.3 10.46 32, 38, 45 (Avg:41)
3 Caley Rees Brieema Khan 8 7:44:00 11.3, 9.4 10.34 32, 44, 51 (Avg:47)
61 Lois Sharam Musical Gully Instrument 8 7:44:00 10.8, 9.8 10.34 32, 39, 50 (Avg:44)
856 Nathalie Thome Checkmate 8 7:44:00 10.8, 9.8 10.34 30, 48, 52 (Avg:50)
91 Kim Noble Clovelly Park Rafiki Lame L1 0:00:00 13.3 - 34, 45 (Avg:45)
Junior
102 Jesse McKinnon Pyrenees Sapphire 1 6:05:00 13.1, 13.1 13.15 34, 40, 46 (Avg:43)
90 Samantha Noble Springridge Bungendore 2 6:18:00 14.2, 11.4 12.70 26, 40, 42 (Avg:41)
140 Samantha Cubbin Tiawarra Ramy 3 6:28:00 12.7, 11.9 12.37 34, 35, 37 (Avg:36)
77 Kaitlin Sidlouskas Just Shakira 4 7:20:00 11.1, 10.6 10.91 34, 40, 42 (Avg:41)